weather.gov     
National Weather Service

Terminal Aerodrome Forecast
NWS Homepage
This page is being discontinued on March 12, 2014.
The same data is available at this site. Please update your bookmarks.
Thank you, and we apologize for the inconvenience.
Please send an email to SR-SRH.Webmaster@noaa.gov with any concerns.


Current Version
Previous Version:    01  02  03  04  05  06  07  08  09  10  11  12  13  14  15  16  17  18  19  20  21  22  23  24  25  26  27  28  29  30  
   31  32  33  34  35  36  37  38  39  40  41  42  43  44  45  46  47  
[Printable]
881
FTUS46 KLOX 311400 AAA
TAFLAX
TAF AMD
KLAX 311452Z 3115/0118 10004KT P6SM FEW011 SCT016 BKN029
     FM312000 25010KT P6SM BKN035 BKN100
     FM010200 24010KT P6SM BKN025 OVC050
     FM010600 24010KT P6SM VCSH BKN015 OVC035
     FM010900 26012KT 5SM -RA BR OVC015
     FM011400 27014KT P6SM -SHRA SCT015 OVC025=


U.S. Dept. of Commerce
NOAA National Weather Service
1325 East West Highway
Silver Spring, MD 20910
E-mail: w-nws.webmaster@noaa.gov
Page last modified: May 16, 2007
NATIONAL WEATHER SERVICE: for Safety, for Work, for Fun - FOR LIFE